createdAt,value
2019-01-27T00:14:37.370Z,6.47
2019-01-27T01:09:56.581Z,6.33
2019-01-27T01:14:30.574Z,5.47
2019-01-27T01:18:50.484Z,5.43
2019-01-27T01:23:25.330Z,6.37
2019-01-27T01:32:28.777Z,5.80
2019-01-27T01:36:52.236Z,6.03
2019-01-27T01:41:47.754Z,6.10
2019-01-27T01:51:16.495Z,4.60
2019-01-27T02:00:55.697Z,5.30
2019-01-27T02:10:28.349Z,5.20
2019-01-27T02:14:01.505Z,4.23
2019-01-27T02:15:28.952Z,4.90
2019-01-27T02:34:58.267Z,5.33
2019-01-27T02:39:43.459Z,5.40
2019-01-27T02:44:21.125Z,5.37
2019-01-27T02:48:41.170Z,5.30
2019-01-27T02:52:59.625Z,5.47
2019-01-27T02:57:24.923Z,5.67
2019-01-27T03:01:55.638Z,4.90
2019-01-27T03:11:13.641Z,3.70
2019-01-27T03:15:37.408Z,4.33
2019-01-27T03:20:04.563Z,3.67
2019-01-27T03:24:26.905Z,3.87
2019-01-27T03:29:01.813Z,4.37
2019-01-27T03:33:28.235Z,3.90
2019-01-27T03:38:07.670Z,3.87
2019-01-27T03:47:17.745Z,2.97
2019-01-27T03:55:58.966Z,2.63
2019-01-27T04:00:25.984Z,2.77
2019-01-27T04:04:43.624Z,2.87
2019-01-27T04:09:02.000Z,2.43
2019-01-27T04:13:28.413Z,2.27
2019-01-27T04:17:47.990Z,2.40
2019-01-27T04:22:23.464Z,3.03
2019-01-27T04:26:39.862Z,2.60
2019-01-27T04:30:56.711Z,2.77
2019-01-27T04:35:21.007Z,2.63
2019-01-27T04:39:39.340Z,2.67
2019-01-27T04:44:02.158Z,2.90
2019-01-27T04:48:21.350Z,2.70
2019-01-27T04:52:59.941Z,2.20
2019-01-27T04:57:21.353Z,2.70
2019-01-27T05:01:41.282Z,2.33
2019-01-27T05:06:00.799Z,2.97
2019-01-27T05:10:18.648Z,2.50
2019-01-27T05:14:35.116Z,2.80
2019-01-27T05:18:55.986Z,2.40
2019-01-27T05:23:16.030Z,1.90
2019-01-27T05:27:32.762Z,2.07
2019-01-27T05:31:49.907Z,1.90
2019-01-27T05:36:06.333Z,2.73
2019-01-27T05:40:22.816Z,1.93
2019-01-27T05:44:39.587Z,1.80
2019-01-27T05:48:56.062Z,2.10
2019-01-27T05:53:12.441Z,1.90
2019-01-27T05:57:28.877Z,2.00
2019-01-27T06:01:45.330Z,2.47
2019-01-27T06:06:01.766Z,2.27
2019-01-27T06:10:18.156Z,2.20
2019-01-27T06:14:34.586Z,2.67
2019-01-27T06:18:50.987Z,3.00
2019-01-27T06:23:07.411Z,2.77
2019-01-27T06:27:23.823Z,2.60
2019-01-27T06:31:40.263Z,7.47
2019-01-27T06:35:56.650Z,4.27
2019-01-27T06:40:13.081Z,4.13
2019-01-27T06:44:29.785Z,3.80
2019-01-27T06:48:46.213Z,7.13
2019-01-27T06:53:02.648Z,6.10
2019-01-27T06:57:19.079Z,4.67
2019-01-27T07:01:40.457Z,5.40
2019-01-27T07:05:58.771Z,5.23
2019-01-27T07:10:31.649Z,4.30
2019-01-27T07:14:52.949Z,3.77
2019-01-27T07:19:28.918Z,4.03
2019-01-27T07:24:05.793Z,3.80
2019-01-27T07:28:39.130Z,4.00
2019-01-27T07:33:06.175Z,4.30
2019-01-27T07:37:27.280Z,4.03
2019-01-27T07:41:48.664Z,4.57
2019-01-27T07:46:13.153Z,4.83
2019-01-27T07:50:31.557Z,3.47
2019-01-27T07:55:06.672Z,3.57
2019-01-27T07:59:25.315Z,3.70
2019-01-27T08:03:43.651Z,3.77
2019-01-27T08:08:19.896Z,4.13
2019-01-27T08:12:47.149Z,3.63
2019-01-27T08:17:11.545Z,4.10
2019-01-27T08:21:35.875Z,4.10
2019-01-27T08:26:00.193Z,3.23
2019-01-27T08:30:21.239Z,3.30
2019-01-27T08:34:39.904Z,3.80
2019-01-27T08:39:07.058Z,3.70
2019-01-27T08:43:25.414Z,3.60
2019-01-27T08:47:42.075Z,3.90
2019-01-27T08:51:58.749Z,3.77
2019-01-27T08:56:15.196Z,3.13
2019-01-27T09:00:33.828Z,3.47
2019-01-27T09:04:55.782Z,3.17
2019-01-27T09:09:18.400Z,3.13
2019-01-27T09:13:52.748Z,3.10
2019-01-27T09:18:26.986Z,3.70
2019-01-27T09:22:57.723Z,3.13
2019-01-27T09:27:20.495Z,2.87
2019-01-27T09:31:41.682Z,3.07
2019-01-27T09:36:00.018Z,2.53
2019-01-27T09:40:33.555Z,2.67
2019-01-27T09:44:51.880Z,2.30
2019-01-27T09:49:10.207Z,2.60
2019-01-27T09:53:28.532Z,2.13
2019-01-27T09:57:49.830Z,2.30
2019-01-27T10:02:08.446Z,2.13
2019-01-27T10:06:26.770Z,1.87
2019-01-27T10:10:45.630Z,2.03
2019-01-27T10:15:22.588Z,1.93
2019-01-27T10:19:42.019Z,1.60
2019-01-27T10:24:07.492Z,2.30
2019-01-27T10:28:40.851Z,1.47
2019-01-27T10:33:09.278Z,1.50
2019-01-27T10:37:28.232Z,1.67
2019-01-27T10:41:49.647Z,1.93
2019-01-27T10:46:11.013Z,1.20
2019-01-27T10:50:47.704Z,1.83
2019-01-27T10:55:15.048Z,1.80
2019-01-27T10:59:39.113Z,1.80
2019-01-27T11:04:06.161Z,1.67
2019-01-27T11:08:26.151Z,1.60
2019-01-27T11:12:59.386Z,1.30
2019-01-27T11:17:20.696Z,1.80
2019-01-27T11:21:42.098Z,1.10
2019-01-27T11:26:03.416Z,2.20
2019-01-27T11:30:21.752Z,1.60
2019-01-27T11:34:54.735Z,1.73
2019-01-27T11:39:16.127Z,2.00
2019-01-27T11:43:50.815Z,1.60
2019-01-27T11:48:09.125Z,1.50
2019-01-27T11:52:25.982Z,1.47
2019-01-27T11:56:47.506Z,1.47
2019-01-27T12:01:05.091Z,1.50
2019-01-27T12:05:21.509Z,1.43
2019-01-27T12:09:37.966Z,1.93
2019-01-27T12:13:54.664Z,1.43
2019-01-27T12:18:13.797Z,1.50
2019-01-27T12:22:30.135Z,1.60
2019-01-27T12:26:48.792Z,2.30
2019-01-27T12:31:07.946Z,1.50
2019-01-27T12:35:27.328Z,1.30
2019-01-27T12:39:46.963Z,1.33
2019-01-27T12:44:03.421Z,1.83
2019-01-27T12:48:20.490Z,2.57
2019-01-27T12:52:36.911Z,1.83
2019-01-27T12:56:54.200Z,1.73
2019-01-27T13:01:17.678Z,1.57
2019-01-27T13:05:34.138Z,2.60
2019-01-27T13:09:50.641Z,1.37
2019-01-27T13:14:07.119Z,1.60
2019-01-27T13:18:25.513Z,2.00
2019-01-27T13:22:43.017Z,1.77
2019-01-27T13:26:59.664Z,1.60
2019-01-27T13:31:18.702Z,3.60
2019-01-27T13:35:38.892Z,4.53
2019-01-27T13:39:54.149Z,2.10
2019-01-27T13:44:10.693Z,2.00
2019-01-27T13:48:27.096Z,2.20
2019-01-27T13:52:43.802Z,1.70
2019-01-27T13:57:00.535Z,2.00
2019-01-27T14:01:17.017Z,1.60
2019-01-27T14:05:33.508Z,2.50
2019-01-27T14:09:50.607Z,1.80
2019-01-27T14:14:07.166Z,1.50
2019-01-27T14:18:25.168Z,1.53
2019-01-27T14:22:42.182Z,1.60
2019-01-27T14:26:58.915Z,2.00
2019-01-27T14:31:21.990Z,2.60
2019-01-27T14:35:38.746Z,2.37
2019-01-27T14:39:55.735Z,2.97
2019-01-27T14:44:12.271Z,3.80
2019-01-27T14:48:28.799Z,3.03
2019-01-27T14:52:47.326Z,2.97
2019-01-27T14:57:03.984Z,3.80
2019-01-27T15:01:20.467Z,4.27
2019-01-27T15:05:36.940Z,7.53
2019-01-27T15:09:53.469Z,3.27
2019-01-27T15:14:09.985Z,2.80
2019-01-27T15:18:26.540Z,2.50
2019-01-27T15:22:44.364Z,2.20
2019-01-27T15:27:02.934Z,2.10
2019-01-27T15:31:19.467Z,2.07
2019-01-27T15:35:35.954Z,1.90
2019-01-27T15:39:53.507Z,1.87
2019-01-27T15:44:11.130Z,2.20
2019-01-27T15:48:27.653Z,2.00
2019-01-27T15:52:44.298Z,1.90
2019-01-27T15:57:01.264Z,1.67
2019-01-27T16:01:18.491Z,2.70
2019-01-27T16:05:35.415Z,1.83
2019-01-27T16:09:52.084Z,2.00
2019-01-27T16:14:09.020Z,2.40
2019-01-27T16:18:25.661Z,1.87
2019-01-27T16:22:44.331Z,3.20
2019-01-27T16:27:01.304Z,7.73
2019-01-27T16:31:38.305Z,4.83
2019-01-27T16:35:55.814Z,3.67
2019-01-27T16:40:13.430Z,3.33
2019-01-27T16:44:29.967Z,3.30
2019-01-27T16:48:46.474Z,3.67
2019-01-27T16:53:02.974Z,4.83
2019-01-27T16:57:20.341Z,5.17
2019-01-27T17:01:39.103Z,3.97
2019-01-27T17:05:56.242Z,3.23
2019-01-27T17:10:15.812Z,4.50
2019-01-27T17:14:33.186Z,5.43
2019-01-27T17:18:50.843Z,5.47
2019-01-27T17:23:07.608Z,3.70
2019-01-27T17:27:26.246Z,3.87
2019-01-27T17:31:44.823Z,4.07
2019-01-27T17:36:01.602Z,3.90
2019-01-27T17:40:18.895Z,4.27
2019-01-27T17:44:36.598Z,3.43
2019-01-27T17:48:53.575Z,2.97
2019-01-27T17:53:11.965Z,5.17
2019-01-27T17:57:31.210Z,4.53
2019-01-27T18:02:07.845Z,3.77
2019-01-27T18:06:42.075Z,3.50
2019-01-27T18:11:01.593Z,4.83
2019-01-27T18:15:30.927Z,7.03
2019-01-27T18:19:47.605Z,5.70
2019-01-27T18:24:04.132Z,5.00
2019-01-27T18:28:21.371Z,5.17
2019-01-27T18:32:42.845Z,4.40
2019-01-27T18:37:13.200Z,6.23
2019-01-27T18:41:29.983Z,4.93
2019-01-27T18:45:46.986Z,3.77
2019-01-27T18:50:10.088Z,5.20
2019-01-27T18:54:32.416Z,4.77
2019-01-27T18:58:54.108Z,5.37
2019-01-27T19:03:12.876Z,5.23
2019-01-27T19:07:31.716Z,4.50
2019-01-27T19:11:50.520Z,4.27
2019-01-27T19:16:18.202Z,5.13
2019-01-27T19:20:39.525Z,5.30
2019-01-27T19:25:06.280Z,4.83
2019-01-27T19:29:44.667Z,4.43
2019-01-27T19:34:09.846Z,4.13
2019-01-27T19:38:32.176Z,3.73
2019-01-27T19:42:56.421Z,4.57
2019-01-27T19:47:15.130Z,4.20
2019-01-27T19:51:44.382Z,7.00
2019-01-27T19:56:11.845Z,6.23
2019-01-27T20:00:47.712Z,4.93
2019-01-27T20:05:25.064Z,4.50
2019-01-27T20:10:01.630Z,4.83
2019-01-27T20:14:35.159Z,4.57
2019-01-27T20:18:58.666Z,4.10
2019-01-27T20:23:25.565Z,4.63
2019-01-27T20:27:47.711Z,4.17
2019-01-27T20:32:11.355Z,4.20
2019-01-27T20:36:30.896Z,3.33
2019-01-27T20:40:52.490Z,3.43
2019-01-27T20:45:16.127Z,3.77
2019-01-27T20:49:46.408Z,4.47
2019-01-27T20:54:07.952Z,3.30
2019-01-27T20:58:34.081Z,4.13
2019-01-27T21:03:11.928Z,4.13
2019-01-27T21:07:30.277Z,5.00
2019-01-27T21:12:05.365Z,4.30
2019-01-27T21:16:30.078Z,5.10
2019-01-27T21:20:53.290Z,4.67
2019-01-27T21:25:09.322Z,4.83
2019-01-27T21:29:25.776Z,4.00
2019-01-27T21:33:42.456Z,4.23
2019-01-27T21:37:58.912Z,4.00
2019-01-27T21:42:15.491Z,3.70
2019-01-27T21:46:33.900Z,4.50
2019-01-27T21:50:50.339Z,4.87
2019-01-27T21:55:07.809Z,4.47
2019-01-27T21:59:24.546Z,3.70
2019-01-27T22:03:40.971Z,3.03
2019-01-27T22:07:57.412Z,4.10
2019-01-27T22:12:14.897Z,3.67
2019-01-27T22:16:32.319Z,4.27
2019-01-27T22:20:50.043Z,3.73
2019-01-27T22:25:09.479Z,3.17
2019-01-27T22:29:25.967Z,3.33
2019-01-27T22:33:44.828Z,3.50
2019-01-27T22:38:01.526Z,3.53
2019-01-27T22:42:17.971Z,3.33
2019-01-27T22:46:34.402Z,4.57
2019-01-27T22:50:50.815Z,4.00
2019-01-27T22:55:08.465Z,4.37
2019-01-27T22:59:25.197Z,3.33
2019-01-27T23:03:41.654Z,2.90
2019-01-27T23:07:58.076Z,3.17
2019-01-27T23:12:14.559Z,2.67
2019-01-27T23:16:32.896Z,2.73
2019-01-27T23:20:49.725Z,2.60
2019-01-27T23:25:07.637Z,2.97
2019-01-27T23:29:24.078Z,3.07
2019-01-27T23:33:40.495Z,3.00
2019-01-27T23:37:58.916Z,3.43
2019-01-27T23:42:15.646Z,3.80
2019-01-27T23:46:32.100Z,3.27
2019-01-27T23:50:50.682Z,3.60
2019-01-27T23:59:40.391Z,4.30
